Time;durP1;ratioP1;P1;durP2;ratioP2;P2;SDS_P1;SDS_P2;PMS_P1;PMS_P2;Temp;Humidity;BMP_temperature;BMP_pressure;BME280_temperature;BME280_humidity;BME280_pressure;Samples;Min_cycle;Max_cycle;Signal;HPM_P1;HPM_P2
2021/05/13 00:01:21;;;;;;;29.73;22.15;;;12.20;83.00;;;;;;5054330;28;20449;-36
2021/05/13 00:03:48;;;;;;;31.27;22.55;;;12.00;83.40;;;;;;5052943;28;20053;-35
2021/05/13 00:06:13;;;;;;;31.50;22.77;;;12.10;83.50;;;;;;5054401;28;20496;-35
2021/05/13 00:08:39;;;;;;;31.42;24.00;;;12.10;82.90;;;;;;5054634;28;20021;-35
2021/05/13 00:11:06;;;;;;;27.67;23.00;;;12.10;83.30;;;;;;5054226;28;20020;-35
2021/05/13 00:13:35;;;;;;;30.27;22.27;;;12.00;83.30;;;;;;5054751;28;20052;-36
2021/05/13 00:16:01;;;;;;;29.67;23.70;;;11.90;83.60;;;;;;5054401;28;20033;-35
2021/05/13 00:18:27;;;;;;;28.00;22.25;;;12.00;83.60;;;;;;5054019;28;20025;-36
2021/05/13 00:20:54;;;;;;;29.55;23.90;;;12.20;83.10;;;;;;5054227;28;20021;-36
2021/05/13 00:23:21;;;;;;;28.30;23.55;;;12.40;82.40;;;;;;5053718;28;20029;-35
2021/05/13 00:25:49;;;;;;;28.40;23.80;;;12.60;81.20;;;;;;5053763;28;20558;-36
2021/05/13 00:28:14;;;;;;;28.38;22.10;;;12.50;81.70;;;;;;5053344;28;20025;-36
2021/05/13 00:30:40;;;;;;;27.83;23.30;;;12.20;83.10;;;;;;5053678;28;20029;-36
2021/05/13 00:33:06;;;;;;;37.90;23.60;;;12.00;83.90;;;;;;5053430;28;20362;-35
2021/05/13 00:35:32;;;;;;;31.92;23.85;;;11.90;84.20;;;;;;5053487;28;20519;-35
2021/05/13 00:37:57;;;;;;;36.13;25.30;;;11.80;84.50;;;;;;5053617;28;20021;-35
2021/05/13 00:40:23;;;;;;;36.67;25.60;;;11.80;85.00;;;;;;5053698;28;20020;-36
2021/05/13 00:42:50;;;;;;;33.53;24.38;;;11.60;85.40;;;;;;5053537;28;20032;-35
2021/05/13 00:45:16;;;;;;;32.80;24.80;;;11.50;86.30;;;;;;5053785;28;20029;-35
2021/05/13 00:47:48;;;;;;;31.58;25.23;;;11.50;86.30;;;;;;5053483;28;20024;-35
2021/05/13 00:50:15;;;;;;;32.22;24.70;;;11.30;87.00;;;;;;5053142;28;20087;-35
2021/05/13 00:52:41;;;;;;;34.50;24.77;;;11.40;87.10;;;;;;5053196;28;20036;-35
2021/05/13 00:55:09;;;;;;;30.73;24.38;;;11.30;87.20;;;;;;5053584;28;20021;-35
2021/05/13 00:57:35;;;;;;;33.50;25.70;;;11.30;87.40;;;;;;5051969;28;20021;-35
2021/05/13 01:00:07;;;;;;;39.65;28.65;;;11.30;87.40;;;;;;5053216;28;20116;-35
2021/05/13 01:02:33;;;;;;;33.50;25.92;;;11.30;87.50;;;;;;5053456;28;20032;-35
2021/05/13 01:04:59;;;;;;;34.92;25.10;;;11.30;87.40;;;;;;5052590;28;20492;-35
2021/05/13 01:07:24;;;;;;;33.28;26.40;;;11.30;87.30;;;;;;5053201;28;20025;-35
2021/05/13 01:09:50;;;;;;;34.45;26.77;;;11.30;87.40;;;;;;5053333;28;20108;-35
2021/05/13 01:12:18;;;;;;;30.83;24.73;;;11.30;87.50;;;;;;5052883;28;20025;-35
2021/05/13 01:14:46;;;;;;;37.33;27.48;;;11.30;87.70;;;;;;5053287;28;20377;-35
2021/05/13 01:19:58;;;;;;;34.58;26.83;;;11.30;87.80;;;;;;5053053;28;20380;-36
2021/05/13 01:22:25;;;;;;;32.88;27.08;;;11.30;87.70;;;;;;5053262;28;20095;-35
2021/05/13 01:24:52;;;;;;;34.72;25.45;;;11.30;87.90;;;;;;5053282;28;20380;-35
2021/05/13 01:27:19;;;;;;;33.80;26.63;;;11.20;87.80;;;;;;5052936;28;20029;-35
2021/05/13 01:29:46;;;;;;;38.35;26.92;;;11.20;88.00;;;;;;5052975;28;20094;-35
2021/05/13 01:32:13;;;;;;;35.25;27.90;;;11.30;87.90;;;;;;5052800;28;20036;-35
2021/05/13 01:34:39;;;;;;;37.53;26.27;;;11.30;87.40;;;;;;5053204;28;20469;-36
2021/05/13 01:37:05;;;;;;;36.15;26.58;;;11.30;87.60;;;;;;5053159;28;20028;-35
2021/05/13 01:39:30;;;;;;;31.27;26.35;;;11.30;87.50;;;;;;5052857;28;20021;-35
2021/05/13 01:41:56;;;;;;;38.55;27.20;;;11.30;87.60;;;;;;5055538;28;20025;-34
2021/05/13 01:44:22;;;;;;;35.95;27.40;;;11.30;87.60;;;;;;5056816;28;20024;-35
2021/05/13 01:46:47;;;;;;;36.38;26.75;;;11.30;87.80;;;;;;5056702;28;20098;-35
2021/05/13 01:49:21;;;;;;;35.03;26.23;;;11.30;87.00;;;;;;5056883;28;20109;-35
2021/05/13 01:51:47;;;;;;;35.00;26.77;;;11.30;87.30;;;;;;5056665;28;20043;-35
2021/05/13 01:54:14;;;;;;;34.53;27.23;;;11.20;87.70;;;;;;5056580;28;20100;-35
2021/05/13 01:56:39;;;;;;;34.47;26.15;;;11.30;87.60;;;;;;5056719;28;20120;-34
2021/05/13 01:59:05;;;;;;;39.53;27.77;;;11.30;87.40;;;;;;5056743;28;20100;-35
2021/05/13 02:01:31;;;;;;;39.15;28.15;;;11.30;87.20;;;;;;5056667;28;20362;-35
2021/05/13 02:03:57;;;;;;;35.08;27.27;;;11.30;87.10;;;;;;5056669;28;20033;-35
2021/05/13 02:06:23;;;;;;;33.08;26.98;;;11.30;87.20;;;;;;5056607;28;20033;-35
2021/05/13 02:08:49;;;;;;;39.88;27.92;;;11.30;87.50;;;;;;5056708;28;20036;-35
2021/05/13 02:11:15;;;;;;;38.53;27.27;;;11.20;87.60;;;;;;5056428;28;20024;-35
2021/05/13 02:13:40;;;;;;;35.38;28.15;;;11.30;87.70;;;;;;5056530;28;20029;-35
2021/05/13 02:16:06;;;;;;;39.03;30.13;;;11.50;86.10;;;;;;5056534;28;20021;-35
2021/05/13 02:18:32;;;;;;;40.85;29.38;;;11.50;85.70;;;;;;5056693;28;20112;-35
2021/05/13 02:20:58;;;;;;;47.72;32.80;;;11.30;86.60;;;;;;5056204;28;20032;-35
2021/05/13 02:23:23;;;;;;;48.55;33.95;;;11.20;87.20;;;;;;5056349;28;20477;-35
2021/05/13 02:25:50;;;;;;;42.25;30.33;;;11.00;87.50;;;;;;5056000;28;20029;-35
2021/05/13 02:28:16;;;;;;;42.25;31.15;;;10.90;88.00;;;;;;5056010;28;20036;-35
2021/05/13 02:30:42;;;;;;;39.53;30.27;;;10.80;88.30;;;;;;5056053;28;20029;-35
2021/05/13 02:33:08;;;;;;;40.60;31.08;;;10.80;88.60;;;;;;5055820;28;20172;-36
2021/05/13 02:35:34;;;;;;;38.30;28.83;;;10.80;88.50;;;;;;5055911;28;20028;-35
2021/05/13 02:38:00;;;;;;;36.75;28.52;;;10.80;88.50;;;;;;5055881;28;20024;-35
2021/05/13 02:40:25;;;;;;;41.45;29.25;;;10.80;88.60;;;;;;5055661;28;20078;-36
2021/05/13 02:42:51;;;;;;;44.60;30.98;;;10.80;88.60;;;;;;5054539;28;20037;-35
2021/05/13 02:45:17;;;;;;;43.28;28.30;;;10.70;88.70;;;;;;5055756;28;20017;-35
2021/05/13 02:47:44;;;;;;;42.17;30.27;;;10.50;89.20;;;;;;5055659;28;20029;-35
2021/05/13 02:50:12;;;;;;;43.60;28.35;;;10.60;89.40;;;;;;5055628;28;20532;-35
2021/05/13 02:52:38;;;;;;;39.17;29.45;;;10.60;89.50;;;;;;5054515;28;20060;-35
2021/05/13 02:55:06;;;;;;;41.92;31.10;;;10.70;88.50;;;;;;5055553;28;20020;-35
2021/05/13 02:57:33;;;;;;;36.08;27.67;;;10.70;88.60;;;;;;5055505;28;20121;-35
2021/05/13 03:00:15;;;;;;;39.90;28.83;;;10.70;88.20;;;;;;5055671;28;20033;-35
2021/05/13 03:02:41;;;;;;;39.80;25.50;;;10.60;88.40;;;;;;5056204;28;20029;-35
2021/05/13 03:05:08;;;;;;;36.30;26.10;;;10.50;88.50;;;;;;5055654;28;20096;-36
2021/05/13 03:07:39;;;;;;;36.63;26.05;;;10.50;88.60;;;;;;5055276;28;20378;-35
2021/05/13 03:10:14;;;;;;;41.15;29.38;;;10.50;88.60;;;;;;5055310;28;20492;-36
2021/05/13 03:12:41;;;;;;;37.28;27.33;;;10.60;88.70;;;;;;5055795;28;20162;-37
2021/05/13 03:15:07;;;;;;;40.10;27.00;;;10.60;88.50;;;;;;5055499;28;20029;-35
2021/05/13 03:17:33;;;;;;;38.72;27.52;;;10.60;88.40;;;;;;5055163;28;20473;-36
2021/05/13 03:19:59;;;;;;;38.92;27.10;;;10.80;88.00;;;;;;5054681;28;20028;-35
2021/05/13 03:22:25;;;;;;;38.33;27.77;;;10.90;87.50;;;;;;5055069;28;20385;-36
2021/05/13 03:24:54;;;;;;;37.22;27.25;;;10.90;87.30;;;;;;5055234;28;20028;-36
2021/05/13 03:29:53;;;;;;;40.50;26.27;;;10.50;88.20;;;;;;5055592;28;20055;-35
2021/05/13 03:32:18;;;;;;;33.70;26.33;;;10.30;89.20;;;;;;5053611;28;20032;-35
2021/05/13 03:34:44;;;;;;;35.80;27.05;;;10.20;89.50;;;;;;5054816;28;20025;-35
2021/05/13 03:37:10;;;;;;;38.88;28.67;;;10.20;89.90;;;;;;5054802;28;20359;-35
2021/05/13 03:39:36;;;;;;;36.88;28.25;;;10.10;90.00;;;;;;5054742;28;20029;-34
2021/05/13 03:42:01;;;;;;;38.30;29.05;;;10.20;90.10;;;;;;5054730;28;20029;-35
2021/05/13 03:44:27;;;;;;;38.30;27.10;;;10.20;90.00;;;;;;5055195;28;20024;-35
2021/05/13 03:46:52;;;;;;;35.67;27.05;;;10.20;90.00;;;;;;5054920;28;20474;-35
2021/05/13 03:49:18;;;;;;;39.83;26.83;;;10.20;89.90;;;;;;5053245;28;20033;-35
2021/05/13 03:51:44;;;;;;;41.15;26.95;;;10.20;89.90;;;;;;5054393;28;20029;-35
2021/05/13 03:54:09;;;;;;;38.55;26.00;;;10.10;89.80;;;;;;5053188;28;20370;-35
2021/05/13 03:56:35;;;;;;;38.47;28.88;;;10.10;89.80;;;;;;5054392;28;20025;-35
2021/05/13 03:59:06;;;;;;;34.97;28.60;;;9.90;89.80;;;;;;5054578;28;20025;-35
2021/05/13 04:04:10;;;;;;;39.17;27.25;;;9.80;90.00;;;;;;5054754;28;20039;-36
2021/05/13 04:06:36;;;;;;;37.60;28.25;;;9.80;90.40;;;;;;5054435;28;20473;-36
2021/05/13 04:09:08;;;;;;;36.58;27.52;;;9.80;90.60;;;;;;5054205;28;20035;-36
2021/05/13 04:11:38;;;;;;;41.85;29.15;;;9.90;90.50;;;;;;5054522;28;20025;-34
2021/05/13 04:14:05;;;;;;;41.03;28.75;;;10.00;90.30;;;;;;5054003;28;20025;-34
2021/05/13 04:16:32;;;;;;;35.92;27.33;;;10.00;90.20;;;;;;5053920;28;20402;-34
2021/05/13 04:18:58;;;;;;;44.20;28.40;;;10.00;90.00;;;;;;5053877;28;20108;-35
2021/05/13 04:21:24;;;;;;;42.83;29.35;;;9.90;90.10;;;;;;5053947;28;20064;-35
2021/05/13 04:23:50;;;;;;;44.80;29.67;;;9.90;90.30;;;;;;5053806;28;20080;-36
2021/05/13 04:26:16;;;;;;;44.40;30.42;;;10.20;89.40;;;;;;5053707;28;20025;-35
2021/05/13 04:28:42;;;;;;;48.58;29.70;;;10.10;89.10;;;;;;5054047;28;20464;-35
2021/05/13 04:31:08;;;;;;;40.67;27.88;;;10.00;89.70;;;;;;5052476;28;20421;-35
2021/05/13 04:33:33;;;;;;;36.42;27.60;;;9.90;89.90;;;;;;5053782;28;20056;-34
2021/05/13 04:36:00;;;;;;;40.35;28.08;;;9.80;90.00;;;;;;5052460;28;20017;-35
2021/05/13 04:38:26;;;;;;;37.72;28.83;;;9.80;90.10;;;;;;5053869;28;20473;-36
2021/05/13 04:40:52;;;;;;;43.38;27.88;;;9.90;90.20;;;;;;5053606;28;20025;-34
2021/05/13 04:43:19;;;;;;;40.42;27.92;;;9.90;90.10;;;;;;5053430;28;20033;-35
2021/05/13 04:45:45;;;;;;;41.95;29.25;;;9.90;90.00;;;;;;5053723;28;20021;-36
2021/05/13 04:48:14;;;;;;;37.85;27.77;;;10.00;89.90;;;;;;5053679;28;20087;-35
2021/05/13 04:50:40;;;;;;;44.55;28.60;;;9.80;90.10;;;;;;5053318;28;20497;-35
2021/05/13 04:53:11;;;;;;;37.97;28.70;;;9.80;90.60;;;;;;5053228;28;20044;-35
2021/05/13 04:55:39;;;;;;;34.47;27.55;;;9.90;90.20;;;;;;5052222;28;20056;-35
2021/05/13 04:58:07;;;;;;;40.35;28.10;;;9.90;90.10;;;;;;5053372;28;20021;-35
2021/05/13 05:00:33;;;;;;;38.28;27.67;;;10.00;90.30;;;;;;5053225;28;20027;-36
2021/05/13 05:02:59;;;;;;;37.78;28.02;;;9.90;89.90;;;;;;5051911;28;20021;-35
2021/05/13 05:05:25;;;;;;;36.83;27.38;;;9.90;90.20;;;;;;5053241;28;20025;-35
2021/05/13 05:07:51;;;;;;;40.22;28.38;;;10.00;90.10;;;;;;5053488;28;20032;-35
2021/05/13 05:10:16;;;;;;;45.10;29.27;;;10.10;89.90;;;;;;5051860;28;20028;-35
2021/05/13 05:12:42;;;;;;;42.45;30.63;;;10.10;89.70;;;;;;5053214;28;20025;-35
2021/05/13 05:15:08;;;;;;;40.22;29.25;;;10.10;90.10;;;;;;5052672;28;20021;-35
2021/05/13 05:17:34;;;;;;;37.58;27.30;;;10.20;89.70;;;;;;5053693;28;20036;-35
2021/05/13 05:20:00;;;;;;;43.65;30.02;;;10.20;89.80;;;;;;5053049;28;20018;-35
2021/05/13 05:22:25;;;;;;;44.53;30.95;;;10.20;90.30;;;;;;5053394;28;20488;-36
2021/05/13 05:24:51;;;;;;;39.63;29.85;;;10.30;89.50;;;;;;5051823;28;20474;-35
2021/05/13 05:27:17;;;;;;;42.45;29.70;;;10.30;89.60;;;;;;5053188;28;20033;-35
2021/05/13 05:29:43;;;;;;;40.00;29.20;;;10.30;89.30;;;;;;5051785;28;20104;-34
2021/05/13 05:32:08;;;;;;;40.00;27.67;;;10.30;89.50;;;;;;5052946;28;20056;-34
2021/05/13 05:34:34;;;;;;;54.58;32.80;;;10.50;88.90;;;;;;5053253;28;20021;-35
2021/05/13 05:37:00;;;;;;;39.08;29.25;;;10.60;88.90;;;;;;5053269;28;20098;-35
2021/05/13 05:39:25;;;;;;;36.15;29.25;;;10.50;88.70;;;;;;5052970;28;20013;-35
2021/05/13 05:41:53;;;;;;;38.55;28.17;;;10.70;88.50;;;;;;5053160;28;20112;-34
2021/05/13 05:44:19;;;;;;;39.13;28.10;;;10.80;88.60;;;;;;5052850;28;20032;-35
2021/05/13 05:46:45;;;;;;;38.13;26.67;;;10.80;88.20;;;;;;5053071;28;20025;-37
2021/05/13 05:49:10;;;;;;;37.20;28.08;;;10.80;88.40;;;;;;5052866;28;20049;-36
2021/05/13 05:51:36;;;;;;;33.17;25.88;;;10.80;88.10;;;;;;5052601;28;20448;-36
2021/05/13 05:54:02;;;;;;;39.20;29.25;;;10.90;88.00;;;;;;5053098;28;20052;-36
2021/05/13 05:56:28;;;;;;;39.17;29.63;;;11.20;87.40;;;;;;5052764;28;20056;-39
2021/05/13 05:58:54;;;;;;;44.05;31.02;;;11.30;87.00;;;;;;5053050;28;20123;-36
2021/05/13 06:01:20;;;;;;;39.42;29.10;;;11.20;86.90;;;;;;5052705;28;20091;-36
2021/05/13 06:03:46;;;;;;;42.38;30.15;;;11.30;86.60;;;;;;5052746;28;20028;-35
2021/05/13 06:06:11;;;;;;;38.50;28.42;;;11.40;86.60;;;;;;5052878;28;20039;-37
2021/05/13 06:08:37;;;;;;;38.97;28.85;;;11.60;85.50;;;;;;5053211;28;20025;-36
2021/05/13 06:11:03;;;;;;;40.22;28.65;;;11.70;85.40;;;;;;5051408;28;20024;-36
2021/05/13 06:13:28;;;;;;;35.95;28.27;;;11.60;85.50;;;;;;5053104;28;20017;-36
2021/05/13 06:15:54;;;;;;;38.15;27.65;;;11.70;85.10;;;;;;5052426;28;20032;-35
2021/05/13 06:18:19;;;;;;;31.23;25.45;;;11.60;85.60;;;;;;5052588;28;20389;-36
2021/05/13 06:20:45;;;;;;;36.22;26.70;;;11.80;85.00;;;;;;5051286;28;20107;-36
2021/05/13 06:23:11;;;;;;;35.22;27.65;;;11.90;84.90;;;;;;5052758;28;20499;-36
2021/05/13 06:25:37;;;;;;;34.88;27.20;;;11.90;84.30;;;;;;5053075;28;20453;-36
2021/05/13 06:28:03;;;;;;;37.33;28.98;;;12.10;83.90;;;;;;5054829;28;20027;-36
2021/05/13 06:30:29;;;;;;;38.25;27.75;;;12.30;83.60;;;;;;5056268;28;20186;-36
2021/05/13 06:32:55;;;;;;;37.33;27.65;;;12.30;83.30;;;;;;5056461;28;20096;-36
2021/05/13 06:35:21;;;;;;;40.20;28.98;;;12.40;83.10;;;;;;5056197;28;20017;-37
2021/05/13 06:37:47;;;;;;;39.25;31.30;;;12.70;81.80;;;;;;5056105;28;20013;-38
2021/05/13 06:40:14;;;;;;;41.47;31.65;;;12.80;81.50;;;;;;5056024;28;20444;-36
2021/05/13 06:42:41;;;;;;;41.78;30.73;;;12.80;80.70;;;;;;5054729;28;20032;-37
2021/05/13 06:45:09;;;;;;;41.38;30.50;;;12.90;80.00;;;;;;5054652;28;20439;-37
2021/05/13 06:47:34;;;;;;;50.90;32.25;;;13.20;79.20;;;;;;5055869;28;20032;-36
2021/05/13 06:50:00;;;;;;;45.72;32.47;;;13.30;78.60;;;;;;5055862;28;20401;-37
2021/05/13 06:52:26;;;;;;;42.90;30.55;;;13.60;76.50;;;;;;5055664;28;20029;-36
2021/05/13 06:54:52;;;;;;;46.88;32.13;;;13.80;76.50;;;;;;5055973;28;20029;-37
2021/05/13 06:57:18;;;;;;;44.33;31.45;;;14.00;75.20;;;;;;5056112;28;20059;-37
2021/05/13 06:59:43;;;;;;;46.35;33.35;;;13.90;74.00;;;;;;5055553;28;20017;-36
2021/05/13 07:02:10;;;;;;;42.72;31.75;;;13.60;75.30;;;;;;5056014;28;20029;-36
2021/05/13 07:04:36;;;;;;;45.75;33.08;;;13.90;75.10;;;;;;5055616;28;20029;-37
2021/05/13 07:07:02;;;;;;;39.35;31.00;;;13.90;75.00;;;;;;5055706;28;20033;-37
2021/05/13 07:09:27;;;;;;;39.10;30.15;;;14.10;74.50;;;;;;5056444;28;20029;-36
2021/05/13 07:11:53;;;;;;;43.72;30.55;;;14.20;74.10;;;;;;5054118;28;20032;-36
2021/05/13 07:14:21;;;;;;;39.38;28.92;;;14.30;74.40;;;;;;5055139;28;20056;-37
2021/05/13 07:16:47;;;;;;;43.30;29.98;;;14.60;72.50;;;;;;5055128;28;20100;-35
2021/05/13 07:19:12;;;;;;;39.35;28.27;;;14.70;72.40;;;;;;5055406;28;20056;-36
2021/05/13 07:21:38;;;;;;;42.72;30.42;;;14.80;71.70;;;;;;5055448;28;20390;-37
2021/05/13 07:24:04;;;;;;;40.85;31.55;;;14.90;70.80;;;;;;5055272;28;20032;-35
2021/05/13 07:26:30;;;;;;;39.20;27.17;;;15.10;70.80;;;;;;5054997;28;20029;-37
2021/05/13 07:28:55;;;;;;;39.35;28.77;;;15.00;70.70;;;;;;5055170;28;20036;-37
2021/05/13 07:31:21;;;;;;;46.20;30.30;;;14.90;71.50;;;;;;5055334;28;20024;-36
2021/05/13 07:33:48;;;;;;;40.00;27.75;;;14.90;72.00;;;;;;5055175;28;20025;-40
2021/05/13 07:36:16;;;;;;;38.97;28.95;;;15.00;71.20;;;;;;5055080;28;20060;-38
2021/05/13 07:38:43;;;;;;;37.40;26.02;;;15.20;70.40;;;;;;5054536;28;20432;-36
2021/05/13 07:41:12;;;;;;;31.80;23.08;;;15.80;68.00;;;;;;5054830;28;20057;-36
2021/05/13 07:43:38;;;;;;;29.80;21.85;;;16.30;65.20;;;;;;5055120;28;20021;-35
2021/05/13 07:46:04;;;;;;;30.70;21.48;;;16.30;65.10;;;;;;5054953;28;20032;-37
2021/05/13 07:48:31;;;;;;;28.98;22.55;;;16.90;63.20;;;;;;5054966;28;20027;-35
2021/05/13 07:50:57;;;;;;;30.58;23.50;;;17.10;62.70;;;;;;5054297;28;20462;-36
2021/05/13 07:53:25;;;;;;;30.75;23.55;;;18.20;59.30;;;;;;5054192;28;20436;-38
2021/05/13 07:55:50;;;;;;;31.65;24.20;;;17.80;58.60;;;;;;5054741;28;20029;-37
2021/05/13 07:58:16;;;;;;;29.13;23.02;;;18.60;56.90;;;;;;5053749;28;20453;-36
2021/05/13 08:00:42;;;;;;;29.30;22.10;;;17.80;58.70;;;;;;5055150;28;20029;-35
2021/05/13 08:03:07;;;;;;;25.80;21.88;;;17.70;59.40;;;;;;5054284;28;20508;-36
2021/05/13 08:05:33;;;;;;;31.75;23.27;;;17.20;60.20;;;;;;5054208;28;20021;-37
2021/05/13 08:07:59;;;;;;;32.40;21.15;;;17.60;60.10;;;;;;5054189;28;20033;-37
2021/05/13 08:10:25;;;;;;;31.15;21.88;;;18.00;58.30;;;;;;5053879;28;20050;-36
2021/05/13 08:12:51;;;;;;;26.33;19.98;;;18.40;55.30;;;;;;5054015;28;20033;-35
2021/05/13 08:15:16;;;;;;;22.27;18.27;;;18.60;54.60;;;;;;5054061;28;20025;-36
2021/05/13 08:17:43;;;;;;;27.05;16.88;;;18.70;53.50;;;;;;5054003;28;20021;-36
2021/05/13 08:20:12;;;;;;;20.80;16.58;;;18.40;52.20;;;;;;5053831;28;20021;-35
2021/05/13 08:22:39;;;;;;;20.45;16.00;;;18.30;53.20;;;;;;5054092;28;20032;-36
2021/05/13 08:25:06;;;;;;;22.83;15.70;;;17.90;53.40;;;;;;5054241;28;20424;-37
2021/05/13 08:27:32;;;;;;;19.33;14.95;;;18.30;53.20;;;;;;5054055;28;20028;-37
2021/05/13 08:29:59;;;;;;;22.17;16.83;;;18.90;52.30;;;;;;5053904;28;20561;-35
2021/05/13 08:32:25;;;;;;;22.88;16.27;;;18.90;51.10;;;;;;5053486;28;20107;-35
2021/05/13 08:34:53;;;;;;;23.02;15.45;;;19.20;49.80;;;;;;5053529;28;20049;-37
2021/05/13 08:37:19;;;;;;;21.55;16.73;;;18.70;51.50;;;;;;5053513;28;20031;-35
2021/05/13 08:39:44;;;;;;;19.90;15.00;;;18.70;51.50;;;;;;5051882;28;20075;-37
2021/05/13 08:42:13;;;;;;;18.52;14.05;;;19.70;48.80;;;;;;5053361;28;20033;-36
2021/05/13 08:44:41;;;;;;;18.38;15.40;;;19.90;46.80;;;;;;5053305;28;20028;-41
2021/05/13 08:47:08;;;;;;;16.50;14.10;;;20.90;45.00;;;;;;5053204;28;20032;-37
2021/05/13 08:49:36;;;;;;;20.33;14.73;;;21.40;43.30;;;;;;5051103;28;20124;-36
2021/05/13 08:52:11;;;;;;;21.10;14.05;;;20.80;44.40;;;;;;5053441;28;20033;-36
2021/05/13 08:54:59;;;;;;;19.17;13.52;;;19.70;47.70;;;;;;5053620;28;20021;-35
2021/05/13 08:57:26;;;;;;;13.20;11.80;;;19.30;48.10;;;;;;5053648;28;20031;-36
2021/05/13 08:59:53;;;;;;;17.02;13.57;;;19.30;48.60;;;;;;5053844;28;20032;-35
2021/05/13 09:02:20;;;;;;;19.10;14.60;;;20.30;45.00;;;;;;5053112;28;20037;-35
2021/05/13 09:04:48;;;;;;;21.65;13.80;;;20.10;46.50;;;;;;5052069;28;20017;-36
2021/05/13 09:07:15;;;;;;;17.35;13.40;;;19.80;46.70;;;;;;5053084;28;20083;-36
2021/05/13 09:09:55;;;;;;;17.45;12.80;;;19.80;47.10;;;;;;5053115;28;20025;-36
2021/05/13 09:12:21;;;;;;;13.73;11.10;;;20.10;46.30;;;;;;5051546;28;20033;-36
2021/05/13 09:15:00;;;;;;;16.63;11.45;;;20.30;43.80;;;;;;5052889;28;20032;-37
2021/05/13 09:17:27;;;;;;;19.48;12.55;;;19.60;45.70;;;;;;5051566;28;20107;-37
2021/05/13 09:19:53;;;;;;;18.80;11.98;;;19.60;46.80;;;;;;5051584;28;20108;-36
2021/05/13 09:22:26;;;;;;;20.30;13.68;;;19.40;46.30;;;;;;5052924;28;20033;-36
2021/05/13 09:24:52;;;;;;;17.60;12.70;;;19.30;47.20;;;;;;5052253;28;20037;-37
2021/05/13 09:27:25;;;;;;;19.00;14.73;;;19.00;47.90;;;;;;5051533;28;20036;-36
2021/05/13 09:30:10;;;;;;;17.33;13.32;;;19.20;47.20;;;;;;5051332;28;20080;-37
2021/05/13 09:32:38;;;;;;;17.05;12.55;;;18.70;49.70;;;;;;5052861;28;20029;-36
2021/05/13 09:35:24;;;;;;;16.85;12.68;;;18.90;47.90;;;;;;5052690;28;20078;-36
2021/05/13 09:38:09;;;;;;;15.60;11.63;;;18.70;48.20;;;;;;5051287;28;20029;-36
2021/05/13 09:40:34;;;;;;;16.27;12.63;;;19.10;48.10;;;;;;5052903;28;20023;-36
2021/05/13 09:43:24;;;;;;;15.05;12.65;;;19.10;47.50;;;;;;5052057;28;20475;-36
2021/05/13 09:45:53;;;;;;;17.85;12.65;;;19.80;46.20;;;;;;5053341;28;20470;-36
2021/05/13 09:48:31;;;;;;;16.47;12.43;;;20.80;43.70;;;;;;5053107;28;20055;-35
2021/05/13 09:51:17;;;;;;;17.80;12.45;;;20.50;44.10;;;;;;5052643;28;20044;-36
2021/05/13 09:53:43;;;;;;;15.50;11.43;;;20.80;43.80;;;;;;5052640;28;20104;-35
2021/05/13 09:56:27;;;;;;;15.80;11.85;;;21.00;42.80;;;;;;5052995;28;20094;-35
2021/05/13 09:58:53;;;;;;;13.60;10.52;;;20.30;44.10;;;;;;5053642;28;20025;-35
2021/05/13 10:01:19;;;;;;;21.15;10.82;;;21.50;41.00;;;;;;5053948;28;20469;-36
2021/05/13 10:03:45;;;;;;;12.25;7.05;;;22.50;38.90;;;;;;5056673;28;20354;-35
2021/05/13 10:06:13;;;;;;;6.40;4.75;;;23.20;34.90;;;;;;5056712;28;20393;-35
2021/05/13 10:08:41;;;;;;;8.93;6.95;;;22.30;34.20;;;;;;5056271;28;20032;-36
2021/05/13 10:11:08;;;;;;;12.10;7.95;;;22.40;35.10;;;;;;5056229;28;20029;-36
2021/05/13 10:13:34;;;;;;;11.85;7.65;;;22.30;36.70;;;;;;5055734;28;20121;-35
2021/05/13 10:16:01;;;;;;;15.30;9.32;;;21.00;39.70;;;;;;5056688;28;20449;-35
2021/05/13 10:18:38;;;;;;;9.00;6.80;;;20.60;40.40;;;;;;5056350;28;20108;-37
2021/05/13 10:21:25;;;;;;;10.43;7.30;;;19.90;41.40;;;;;;5056265;28;20425;-35
2021/05/13 10:23:53;;;;;;;11.63;8.35;;;18.80;43.80;;;;;;5056801;28;20036;-37
2021/05/13 10:26:28;;;;;;;11.57;9.20;;;19.50;42.40;;;;;;5055933;28;20438;-36
2021/05/13 10:28:53;;;;;;;12.27;8.55;;;19.50;42.80;;;;;;5056217;28;20100;-38
2021/05/13 10:31:37;;;;;;;13.93;8.43;;;19.40;43.40;;;;;;5054566;28;20083;-36
2021/05/13 10:34:03;;;;;;;11.90;8.25;;;19.40;43.60;;;;;;5056030;28;20380;-35
2021/05/13 10:36:29;;;;;;;9.57;8.35;;;19.30;43.10;;;;;;5056055;28;20017;-35
2021/05/13 10:39:09;;;;;;;11.15;9.23;;;19.60;42.20;;;;;;5055858;28;20052;-37
2021/05/13 10:41:40;;;;;;;13.18;8.10;;;19.80;42.30;;;;;;5055655;28;20437;-35
2021/05/13 10:44:09;;;;;;;10.88;9.13;;;19.70;42.80;;;;;;5055975;28;20112;-34
2021/05/13 10:46:36;;;;;;;14.63;9.43;;;20.30;42.20;;;;;;5055460;28;20025;-35
2021/05/13 10:49:17;;;;;;;14.25;10.65;;;22.10;39.00;;;;;;5055585;28;20079;-35
2021/05/13 10:51:44;;;;;;;17.85;10.43;;;21.50;39.30;;;;;;5055475;28;20170;-35
2021/05/13 10:54:30;;;;;;;12.32;8.20;;;20.40;42.30;;;;;;5055790;28;20053;-36
2021/05/13 10:57:22;;;;;;;10.63;8.73;;;20.80;38.80;;;;;;5055284;28;20053;-36
2021/05/13 11:00:09;;;;;;;12.15;8.75;;;21.00;38.90;;;;;;5055910;28;20471;-36
2021/05/13 11:02:50;;;;;;;15.00;8.85;;;22.40;37.60;;;;;;5054810;28;20020;-36
2021/05/13 11:05:36;;;;;;;12.65;8.75;;;22.80;36.20;;;;;;5055265;28;20025;-36
2021/05/13 11:08:08;;;;;;;11.45;10.15;;;20.80;39.80;;;;;;5055988;28;20175;-37
2021/05/13 11:10:50;;;;;;;16.00;9.32;;;21.30;38.40;;;;;;5055223;28;20446;-36
2021/05/13 11:13:17;;;;;;;12.82;9.10;;;21.80;37.90;;;;;;5054205;28;20024;-36
2021/05/13 11:15:46;;;;;;;10.88;9.77;;;22.00;37.70;;;;;;5055214;28;20024;-37
2021/05/13 11:18:14;;;;;;;13.80;10.00;;;20.90;39.60;;;;;;5055236;28;20085;-38
2021/05/13 11:20:45;;;;;;;13.38;9.20;;;20.30;40.40;;;;;;5054579;28;20025;-37
2021/05/13 11:23:11;;;;;;;11.50;8.30;;;20.90;39.30;;;;;;5054809;28;20021;-37
2021/05/13 11:25:49;;;;;;;10.75;7.25;;;21.50;37.20;;;;;;5054340;28;20040;-37
2021/05/13 11:28:30;;;;;;;11.60;7.45;;;23.40;32.90;;;;;;5054503;28;20061;-37
2021/05/13 11:31:05;;;;;;;12.30;7.35;;;23.10;33.10;;;;;;5055007;28;20381;-37
2021/05/13 11:33:51;;;;;;;11.75;6.78;;;22.20;35.10;;;;;;5054349;28;20028;-37
2021/05/13 11:36:23;;;;;;;14.32;8.30;;;23.80;33.00;;;;;;5054280;28;20032;-37
2021/05/13 11:38:52;;;;;;;9.38;7.03;;;24.30;31.70;;;;;;5054985;28;20105;-37
2021/05/13 11:41:18;;;;;;;13.10;7.82;;;25.70;29.20;;;;;;5054772;28;20378;-37
2021/05/13 11:43:45;;;;;;;8.88;7.38;;;25.30;29.80;;;;;;5054738;28;20063;-37
2021/05/13 11:46:12;;;;;;;12.07;6.75;;;25.30;30.20;;;;;;5054213;28;20032;-38
2021/05/13 11:48:39;;;;;;;8.77;7.78;;;24.90;32.00;;;;;;5054787;28;20108;-36
2021/05/13 11:51:09;;;;;;;11.75;7.80;;;23.70;33.20;;;;;;5054094;28;20071;-37
2021/05/13 11:53:37;;;;;;;12.50;7.85;;;22.70;36.00;;;;;;5053963;28;20079;-38
2021/05/13 11:56:05;;;;;;;14.63;9.13;;;21.40;36.50;;;;;;5054134;28;20032;-37
2021/05/13 11:58:43;;;;;;;11.90;9.32;;;20.40;38.70;;;;;;5054124;28;20045;-37
2021/05/13 12:01:23;;;;;;;15.68;8.68;;;20.30;39.80;;;;;;5054704;28;20025;-37
2021/05/13 12:03:58;;;;;;;;;;;19.70;40.70;;;;;;5053696;28;20032;-38
2021/05/13 12:06:24;;;;;;;13.48;8.10;;;20.10;40.30;;;;;;5054143;28;19904;-37
2021/05/13 12:08:50;;;;;;;14.48;7.47;;;20.00;40.30;;;;;;5054004;28;20125;-37
2021/05/13 12:11:25;;;;;;;12.90;7.10;;;19.90;40.60;;;;;;5054104;28;20103;-37
2021/05/13 12:13:52;;;;;;;8.93;7.18;;;19.70;42.40;;;;;;5054262;28;20085;-37
2021/05/13 12:16:20;;;;;;;13.98;7.00;;;19.70;42.80;;;;;;5052652;28;20027;-37
2021/05/13 12:18:47;;;;;;;11.05;6.95;;;19.50;43.10;;;;;;5053822;28;20036;-38
2021/05/13 12:21:15;;;;;;;10.27;7.00;;;19.60;42.80;;;;;;5035158;28;20060;-38
2021/05/13 12:23:42;;;;;;;11.30;6.68;;;19.50;43.20;;;;;;5053869;28;20057;-39
2021/05/13 12:26:10;;;;;;;8.57;6.40;;;19.60;42.90;;;;;;5053364;28;20033;-36
2021/05/13 12:28:37;;;;;;;7.22;5.65;;;19.80;43.20;;;;;;5052243;28;20098;-36
2021/05/13 12:31:03;;;;;;;8.15;5.25;;;19.70;43.20;;;;;;5053612;28;20025;-38
2021/05/13 12:33:35;;;;;;;11.90;5.85;;;19.60;43.70;;;;;;5053742;28;20024;-37
2021/05/13 12:36:02;;;;;;;7.45;6.25;;;19.50;43.60;;;;;;5053510;28;20025;-36
2021/05/13 12:38:28;;;;;;;13.63;8.75;;;19.10;43.80;;;;;;5053507;28;20114;-37
2021/05/13 12:41:11;;;;;;;8.27;6.53;;;19.00;44.80;;;;;;5053784;28;20060;-37
2021/05/13 12:43:37;;;;;;;10.65;5.97;;;19.80;43.40;;;;;;5053595;28;20028;-36